Casar, North Carolina
Current Conditions -  °F | °C
As of 3:15 PM on Thursday 29 Jan 2015 (Local Time) from KEHO Reporting Station
Broken Clouds Broken Clouds  
Wind Chill:   Ceiling: 12000
Heat Index:   Visibility: 10mi
Dew Point: -5°   Wind: 9mph
Humidity: 39%   Direction: 180°S
Pressure: 30.12"   Gusts: NA
Location:  35.51°N, 81.62°W
Report Text: KEHO 292015Z AUTO 18008KT 10SM BKN120 09/M04 A3012 RMK AO2 T00901045
Loading
Personal Weather Stations






























Interactive Weather Map New forecast layout! Learn more

10-Day Weather Forecast

Advertisements
Track Severe Weather on mobile